sensor_id;sensor_type;location;lat;lon;timestamp;P1;durP1;ratioP1;P2;durP2;ratioP2
26098;SDS011;13860;52.370;6.764;2023-10-31T00:02:16;21.52;;;14.93;;
26098;SDS011;13860;52.370;6.764;2023-10-31T00:05:24;21.10;;;14.35;;
26098;SDS011;13860;52.370;6.764;2023-10-31T00:08:31;25.80;;;14.95;;
26098;SDS011;13860;52.370;6.764;2023-10-31T00:11:37;25.08;;;13.90;;
26098;SDS011;13860;52.370;6.764;2023-10-31T00:14:44;24.73;;;15.23;;
26098;SDS011;13860;52.370;6.764;2023-10-31T00:17:50;22.73;;;15.07;;
26098;SDS011;13860;52.370;6.764;2023-10-31T00:21:02;22.92;;;14.55;;
26098;SDS011;13860;52.370;6.764;2023-10-31T00:24:08;20.67;;;14.02;;
26098;SDS011;13860;52.370;6.764;2023-10-31T00:27:15;23.10;;;15.13;;
26098;SDS011;13860;52.370;6.764;2023-10-31T00:30:20;22.20;;;15.13;;
26098;SDS011;13860;52.370;6.764;2023-10-31T00:33:28;26.75;;;16.42;;
26098;SDS011;13860;52.370;6.764;2023-10-31T00:36:36;23.67;;;15.00;;
26098;SDS011;13860;52.370;6.764;2023-10-31T00:39:44;25.50;;;14.88;;
26098;SDS011;13860;52.370;6.764;2023-10-31T00:42:51;24.33;;;15.00;;
26098;SDS011;13860;52.370;6.764;2023-10-31T00:46:02;22.00;;;15.35;;
26098;SDS011;13860;52.370;6.764;2023-10-31T00:49:08;27.52;;;15.82;;
26098;SDS011;13860;52.370;6.764;2023-10-31T00:52:18;22.15;;;15.13;;
26098;SDS011;13860;52.370;6.764;2023-10-31T00:55:25;23.92;;;14.60;;
26098;SDS011;13860;52.370;6.764;2023-10-31T00:58:32;19.27;;;13.20;;
26098;SDS011;13860;52.370;6.764;2023-10-31T01:01:42;20.27;;;13.45;;
26098;SDS011;13860;52.370;6.764;2023-10-31T01:04:49;20.08;;;11.68;;
26098;SDS011;13860;52.370;6.764;2023-10-31T01:07:57;21.42;;;11.75;;
26098;SDS011;13860;52.370;6.764;2023-10-31T01:11:05;16.67;;;10.88;;
26098;SDS011;13860;52.370;6.764;2023-10-31T01:14:12;15.15;;;10.48;;
26098;SDS011;13860;52.370;6.764;2023-10-31T01:17:20;17.10;;;10.48;;
26098;SDS011;13860;52.370;6.764;2023-10-31T01:20:25;15.63;;;10.45;;
26098;SDS011;13860;52.370;6.764;2023-10-31T01:23:35;15.00;;;8.90;;
26098;SDS011;13860;52.370;6.764;2023-10-31T01:26:41;9.15;;;5.35;;
26098;SDS011;13860;52.370;6.764;2023-10-31T01:29:48;2.83;;;2.10;;
26098;SDS011;13860;52.370;6.764;2023-10-31T01:32:53;0.93;;;0.90;;
26098;SDS011;13860;52.370;6.764;2023-10-31T01:36:01;0.82;;;0.68;;
26098;SDS011;13860;52.370;6.764;2023-10-31T01:39:09;0.95;;;0.50;;
26098;SDS011;13860;52.370;6.764;2023-10-31T01:42:17;0.73;;;0.52;;
26098;SDS011;13860;52.370;6.764;2023-10-31T01:45:23;0.47;;;0.40;;
26098;SDS011;13860;52.370;6.764;2023-10-31T01:48:30;1.40;;;0.60;;
26098;SDS011;13860;52.370;6.764;2023-10-31T01:51:37;1.20;;;0.57;;
26098;SDS011;13860;52.370;6.764;2023-10-31T01:54:47;1.35;;;0.50;;
26098;SDS011;13860;52.370;6.764;2023-10-31T01:57:53;2.75;;;0.68;;
26098;SDS011;13860;52.370;6.764;2023-10-31T02:01:04;3.70;;;0.60;;
26098;SDS011;13860;52.370;6.764;2023-10-31T02:04:10;3.00;;;0.70;;
26098;SDS011;13860;52.370;6.764;2023-10-31T02:07:17;3.90;;;0.93;;
26098;SDS011;13860;52.370;6.764;2023-10-31T02:10:26;4.88;;;0.70;;
26098;SDS011;13860;52.370;6.764;2023-10-31T02:13:34;3.42;;;0.50;;
26098;SDS011;13860;52.370;6.764;2023-10-31T02:16:40;2.30;;;0.50;;
26098;SDS011;13860;52.370;6.764;2023-10-31T02:19:47;2.20;;;0.40;;
26098;SDS011;13860;52.370;6.764;2023-10-31T02:22:56;1.10;;;0.40;;
26098;SDS011;13860;52.370;6.764;2023-10-31T02:26:03;2.13;;;0.57;;
26098;SDS011;13860;52.370;6.764;2023-10-31T02:29:09;5.97;;;0.95;;
26098;SDS011;13860;52.370;6.764;2023-10-31T02:32:16;2.30;;;0.70;;
26098;SDS011;13860;52.370;6.764;2023-10-31T02:35:22;6.28;;;0.85;;
26098;SDS011;13860;52.370;6.764;2023-10-31T02:38:32;2.67;;;0.82;;
26098;SDS011;13860;52.370;6.764;2023-10-31T02:41:37;7.53;;;1.27;;
26098;SDS011;13860;52.370;6.764;2023-10-31T02:44:45;3.72;;;1.02;;
26098;SDS011;13860;52.370;6.764;2023-10-31T02:47:50;4.40;;;0.93;;
26098;SDS011;13860;52.370;6.764;2023-10-31T02:50:59;3.72;;;0.85;;
26098;SDS011;13860;52.370;6.764;2023-10-31T02:54:07;6.38;;;1.20;;
26098;SDS011;13860;52.370;6.764;2023-10-31T02:57:17;5.03;;;1.20;;
26098;SDS011;13860;52.370;6.764;2023-10-31T03:00:23;3.92;;;0.80;;
26098;SDS011;13860;52.370;6.764;2023-10-31T03:03:31;5.72;;;1.20;;
26098;SDS011;13860;52.370;6.764;2023-10-31T03:06:37;5.28;;;2.28;;
26098;SDS011;13860;52.370;6.764;2023-10-31T03:09:47;4.28;;;1.40;;
26098;SDS011;13860;52.370;6.764;2023-10-31T03:12:53;3.30;;;1.25;;
26098;SDS011;13860;52.370;6.764;2023-10-31T03:16:00;8.60;;;1.42;;
26098;SDS011;13860;52.370;6.764;2023-10-31T03:19:06;9.20;;;1.92;;
26098;SDS011;13860;52.370;6.764;2023-10-31T03:22:14;6.55;;;1.55;;
26098;SDS011;13860;52.370;6.764;2023-10-31T03:25:22;7.10;;;1.33;;
26098;SDS011;13860;52.370;6.764;2023-10-31T03:28:36;8.95;;;1.38;;
26098;SDS011;13860;52.370;6.764;2023-10-31T03:31:41;8.07;;;1.95;;
26098;SDS011;13860;52.370;6.764;2023-10-31T03:34:49;6.50;;;1.55;;
26098;SDS011;13860;52.370;6.764;2023-10-31T03:37:54;7.85;;;2.20;;
26098;SDS011;13860;52.370;6.764;2023-10-31T03:41:05;9.00;;;2.60;;
26098;SDS011;13860;52.370;6.764;2023-10-31T03:44:11;8.30;;;3.13;;
26098;SDS011;13860;52.370;6.764;2023-10-31T03:47:18;10.50;;;3.92;;
26098;SDS011;13860;52.370;6.764;2023-10-31T03:50:24;9.05;;;3.67;;
26098;SDS011;13860;52.370;6.764;2023-10-31T03:53:34;13.30;;;4.25;;
26098;SDS011;13860;52.370;6.764;2023-10-31T03:56:43;8.82;;;4.45;;
26098;SDS011;13860;52.370;6.764;2023-10-31T03:59:53;10.20;;;4.43;;
26098;SDS011;13860;52.370;6.764;2023-10-31T04:02:58;9.30;;;4.55;;
26098;SDS011;13860;52.370;6.764;2023-10-31T04:06:06;8.95;;;5.15;;
26098;SDS011;13860;52.370;6.764;2023-10-31T04:09:12;8.30;;;4.90;;
26098;SDS011;13860;52.370;6.764;2023-10-31T04:12:22;8.18;;;4.90;;
26098;SDS011;13860;52.370;6.764;2023-10-31T04:15:27;10.25;;;5.50;;
26098;SDS011;13860;52.370;6.764;2023-10-31T04:18:35;9.50;;;5.93;;
26098;SDS011;13860;52.370;6.764;2023-10-31T04:21:41;10.82;;;5.97;;
26098;SDS011;13860;52.370;6.764;2023-10-31T04:24:48;14.60;;;6.50;;
26098;SDS011;13860;52.370;6.764;2023-10-31T04:27:56;11.95;;;6.15;;
26098;SDS011;13860;52.370;6.764;2023-10-31T04:31:05;13.90;;;6.05;;
26098;SDS011;13860;52.370;6.764;2023-10-31T04:34:10;11.35;;;7.25;;
26098;SDS011;13860;52.370;6.764;2023-10-31T04:37:20;10.70;;;6.43;;
26098;SDS011;13860;52.370;6.764;2023-10-31T04:40:27;9.70;;;5.78;;
26098;SDS011;13860;52.370;6.764;2023-10-31T04:43:37;9.57;;;6.30;;
26098;SDS011;13860;52.370;6.764;2023-10-31T04:46:43;9.40;;;6.32;;
26098;SDS011;13860;52.370;6.764;2023-10-31T04:49:51;10.82;;;5.78;;
26098;SDS011;13860;52.370;6.764;2023-10-31T04:52:58;10.07;;;6.00;;
26098;SDS011;13860;52.370;6.764;2023-10-31T04:56:11;12.68;;;6.20;;
26098;SDS011;13860;52.370;6.764;2023-10-31T04:59:20;12.05;;;5.90;;
26098;SDS011;13860;52.370;6.764;2023-10-31T05:02:27;12.40;;;5.80;;
26098;SDS011;13860;52.370;6.764;2023-10-31T05:05:33;8.98;;;5.78;;
26098;SDS011;13860;52.370;6.764;2023-10-31T05:08:41;10.85;;;5.75;;
26098;SDS011;13860;52.370;6.764;2023-10-31T05:11:48;10.02;;;5.80;;
26098;SDS011;13860;52.370;6.764;2023-10-31T05:14:58;11.10;;;5.63;;
26098;SDS011;13860;52.370;6.764;2023-10-31T05:18:04;8.95;;;5.07;;
26098;SDS011;13860;52.370;6.764;2023-10-31T05:21:12;10.98;;;6.25;;
26098;SDS011;13860;52.370;6.764;2023-10-31T05:24:17;12.57;;;5.60;;
26098;SDS011;13860;52.370;6.764;2023-10-31T05:27:24;10.10;;;5.78;;
26098;SDS011;13860;52.370;6.764;2023-10-31T05:30:37;8.25;;;4.95;;
26098;SDS011;13860;52.370;6.764;2023-10-31T05:33:44;11.00;;;5.15;;
26098;SDS011;13860;52.370;6.764;2023-10-31T05:36:50;8.07;;;4.63;;
26098;SDS011;13860;52.370;6.764;2023-10-31T05:39:57;9.57;;;5.10;;
26098;SDS011;13860;52.370;6.764;2023-10-31T05:43:03;8.75;;;5.15;;
26098;SDS011;13860;52.370;6.764;2023-10-31T05:46:13;8.10;;;4.80;;
26098;SDS011;13860;52.370;6.764;2023-10-31T05:49:19;13.73;;;4.97;;
26098;SDS011;13860;52.370;6.764;2023-10-31T05:52:27;8.30;;;5.10;;
26098;SDS011;13860;52.370;6.764;2023-10-31T05:55:34;8.43;;;4.57;;
26098;SDS011;13860;52.370;6.764;2023-10-31T05:58:45;7.38;;;4.82;;
26098;SDS011;13860;52.370;6.764;2023-10-31T06:01:55;6.82;;;4.53;;
26098;SDS011;13860;52.370;6.764;2023-10-31T06:05:05;8.48;;;5.03;;
26098;SDS011;13860;52.370;6.764;2023-10-31T06:08:11;6.40;;;3.90;;
26098;SDS011;13860;52.370;6.764;2023-10-31T06:11:20;9.30;;;4.55;;
26098;SDS011;13860;52.370;6.764;2023-10-31T06:14:26;5.32;;;3.63;;
26098;SDS011;13860;52.370;6.764;2023-10-31T06:17:38;8.98;;;3.60;;
26098;SDS011;13860;52.370;6.764;2023-10-31T06:20:44;6.25;;;3.10;;
26098;SDS011;13860;52.370;6.764;2023-10-31T06:23:51;5.85;;;3.05;;
26098;SDS011;13860;52.370;6.764;2023-10-31T06:27:00;7.65;;;3.47;;
26098;SDS011;13860;52.370;6.764;2023-10-31T06:30:11;3.90;;;2.77;;
26098;SDS011;13860;52.370;6.764;2023-10-31T06:33:31;7.05;;;3.60;;
26098;SDS011;13860;52.370;6.764;2023-10-31T06:36:39;6.43;;;3.55;;
26098;SDS011;13860;52.370;6.764;2023-10-31T06:39:44;5.25;;;2.40;;
26098;SDS011;13860;52.370;6.764;2023-10-31T06:42:52;3.22;;;2.20;;
26098;SDS011;13860;52.370;6.764;2023-10-31T06:46:00;4.30;;;2.72;;
26098;SDS011;13860;52.370;6.764;2023-10-31T06:49:11;3.92;;;2.28;;
26098;SDS011;13860;52.370;6.764;2023-10-31T06:52:17;3.15;;;2.17;;
26098;SDS011;13860;52.370;6.764;2023-10-31T06:55:24;7.60;;;2.10;;
26098;SDS011;13860;52.370;6.764;2023-10-31T06:58:30;5.68;;;2.42;;
26098;SDS011;13860;52.370;6.764;2023-10-31T07:01:37;4.30;;;2.30;;
26098;SDS011;13860;52.370;6.764;2023-10-31T07:04:45;3.78;;;2.00;;
26098;SDS011;13860;52.370;6.764;2023-10-31T07:07:53;6.15;;;2.10;;
26098;SDS011;13860;52.370;6.764;2023-10-31T07:10:58;4.57;;;1.80;;
26098;SDS011;13860;52.370;6.764;2023-10-31T07:14:06;3.72;;;1.73;;
26098;SDS011;13860;52.370;6.764;2023-10-31T07:17:12;4.25;;;2.10;;
26098;SDS011;13860;52.370;6.764;2023-10-31T07:20:22;4.03;;;1.75;;
26098;SDS011;13860;52.370;6.764;2023-10-31T07:23:27;3.08;;;1.77;;
26098;SDS011;13860;52.370;6.764;2023-10-31T07:26:36;5.70;;;2.03;;
26098;SDS011;13860;52.370;6.764;2023-10-31T07:29:42;4.50;;;1.60;;
26098;SDS011;13860;52.370;6.764;2023-10-31T07:32:50;6.68;;;1.75;;
26098;SDS011;13860;52.370;6.764;2023-10-31T07:35:58;6.85;;;1.92;;
26098;SDS011;13860;52.370;6.764;2023-10-31T07:39:06;7.85;;;2.58;;
26098;SDS011;13860;52.370;6.764;2023-10-31T07:42:11;2.88;;;1.48;;
26098;SDS011;13860;52.370;6.764;2023-10-31T07:45:20;2.92;;;1.60;;
26098;SDS011;13860;52.370;6.764;2023-10-31T07:48:25;2.10;;;1.70;;
26098;SDS011;13860;52.370;6.764;2023-10-31T07:51:35;9.60;;;1.80;;
26098;SDS011;13860;52.370;6.764;2023-10-31T07:54:41;5.28;;;1.73;;
26098;SDS011;13860;52.370;6.764;2023-10-31T07:57:48;5.63;;;1.77;;
26098;SDS011;13860;52.370;6.764;2023-10-31T08:00:58;2.80;;;1.55;;
26098;SDS011;13860;52.370;6.764;2023-10-31T08:04:06;2.50;;;1.58;;
26098;SDS011;13860;52.370;6.764;2023-10-31T08:07:15;2.05;;;1.65;;
26098;SDS011;13860;52.370;6.764;2023-10-31T08:10:22;3.22;;;1.95;;
26098;SDS011;13860;52.370;6.764;2023-10-31T08:13:29;6.47;;;1.83;;
26098;SDS011;13860;52.370;6.764;2023-10-31T08:16:36;4.55;;;2.53;;
26098;SDS011;13860;52.370;6.764;2023-10-31T08:19:42;5.65;;;2.17;;
26098;SDS011;13860;52.370;6.764;2023-10-31T08:22:53;5.28;;;2.38;;
26098;SDS011;13860;52.370;6.764;2023-10-31T08:25:58;6.95;;;1.90;;
26098;SDS011;13860;52.370;6.764;2023-10-31T08:29:06;4.13;;;2.10;;
26098;SDS011;13860;52.370;6.764;2023-10-31T08:32:12;5.63;;;2.33;;
26098;SDS011;13860;52.370;6.764;2023-10-31T08:35:20;3.53;;;2.17;;
26098;SDS011;13860;52.370;6.764;2023-10-31T08:38:28;6.00;;;2.30;;
26098;SDS011;13860;52.370;6.764;2023-10-31T08:41:48;9.18;;;2.72;;
26098;SDS011;13860;52.370;6.764;2023-10-31T08:44:54;4.90;;;2.53;;
26098;SDS011;13860;52.370;6.764;2023-10-31T08:48:02;5.70;;;2.45;;
26098;SDS011;13860;52.370;6.764;2023-10-31T08:51:08;6.45;;;2.90;;
26098;SDS011;13860;52.370;6.764;2023-10-31T08:54:18;7.68;;;2.63;;
26098;SDS011;13860;52.370;6.764;2023-10-31T08:57:24;4.63;;;2.95;;
26098;SDS011;13860;52.370;6.764;2023-10-31T09:00:31;10.73;;;3.20;;
26098;SDS011;13860;52.370;6.764;2023-10-31T09:03:37;7.93;;;2.85;;
26098;SDS011;13860;52.370;6.764;2023-10-31T09:06:44;4.07;;;3.10;;
26098;SDS011;13860;52.370;6.764;2023-10-31T09:09:52;4.78;;;2.75;;
26098;SDS011;13860;52.370;6.764;2023-10-31T09:13:00;9.00;;;3.58;;
26098;SDS011;13860;52.370;6.764;2023-10-31T09:16:06;6.18;;;3.35;;
26098;SDS011;13860;52.370;6.764;2023-10-31T09:19:14;5.80;;;3.00;;
26098;SDS011;13860;52.370;6.764;2023-10-31T09:22:19;6.28;;;3.45;;
26098;SDS011;13860;52.370;6.764;2023-10-31T09:25:29;10.23;;;3.92;;
26098;SDS011;13860;52.370;6.764;2023-10-31T09:28:35;5.35;;;3.35;;
26098;SDS011;13860;52.370;6.764;2023-10-31T09:31:44;6.72;;;3.72;;
26098;SDS011;13860;52.370;6.764;2023-10-31T09:34:50;8.30;;;3.40;;
26098;SDS011;13860;52.370;6.764;2023-10-31T09:37:57;5.50;;;3.47;;
26098;SDS011;13860;52.370;6.764;2023-10-31T09:41:05;4.78;;;2.90;;
26098;SDS011;13860;52.370;6.764;2023-10-31T09:44:13;11.23;;;3.60;;
26098;SDS011;13860;52.370;6.764;2023-10-31T09:47:19;6.38;;;3.58;;
26098;SDS011;13860;52.370;6.764;2023-10-31T09:50:27;8.02;;;3.20;;
26098;SDS011;13860;52.370;6.764;2023-10-31T09:53:34;5.30;;;3.42;;
26098;SDS011;13860;52.370;6.764;2023-10-31T09:56:47;7.97;;;3.20;;
26098;SDS011;13860;52.370;6.764;2023-10-31T09:59:53;6.07;;;2.80;;
26098;SDS011;13860;52.370;6.764;2023-10-31T10:03:00;4.05;;;3.05;;
26098;SDS011;13860;52.370;6.764;2023-10-31T10:06:06;6.28;;;3.03;;
26098;SDS011;13860;52.370;6.764;2023-10-31T10:09:14;7.53;;;2.95;;
26098;SDS011;13860;52.370;6.764;2023-10-31T10:12:22;6.28;;;3.20;;
26098;SDS011;13860;52.370;6.764;2023-10-31T10:15:30;3.30;;;1.75;;
26098;SDS011;13860;52.370;6.764;2023-10-31T10:18:47;5.35;;;2.38;;
26098;SDS011;13860;52.370;6.764;2023-10-31T10:21:55;5.10;;;2.05;;
26098;SDS011;13860;52.370;6.764;2023-10-31T10:25:01;2.85;;;1.83;;
26098;SDS011;13860;52.370;6.764;2023-10-31T10:28:13;4.53;;;1.88;;
26098;SDS011;13860;52.370;6.764;2023-10-31T10:31:18;5.60;;;2.20;;
26098;SDS011;13860;52.370;6.764;2023-10-31T10:34:25;5.85;;;2.10;;
26098;SDS011;13860;52.370;6.764;2023-10-31T10:37:31;6.82;;;1.83;;
26098;SDS011;13860;52.370;6.764;2023-10-31T10:40:40;3.10;;;1.65;;
26098;SDS011;13860;52.370;6.764;2023-10-31T10:43:49;8.20;;;1.58;;
26098;SDS011;13860;52.370;6.764;2023-10-31T10:47:04;8.00;;;1.42;;
26098;SDS011;13860;52.370;6.764;2023-10-31T10:50:11;3.92;;;1.70;;
26098;SDS011;13860;52.370;6.764;2023-10-31T10:53:21;4.30;;;1.40;;
26098;SDS011;13860;52.370;6.764;2023-10-31T10:56:30;3.85;;;1.60;;
26098;SDS011;13860;52.370;6.764;2023-10-31T10:59:48;5.80;;;1.40;;
26098;SDS011;13860;52.370;6.764;2023-10-31T11:02:56;4.15;;;1.30;;
26098;SDS011;13860;52.370;6.764;2023-10-31T11:06:04;5.25;;;1.20;;
26098;SDS011;13860;52.370;6.764;2023-10-31T11:09:10;5.28;;;0.98;;
26098;SDS011;13860;52.370;6.764;2023-10-31T11:12:19;3.20;;;1.08;;
26098;SDS011;13860;52.370;6.764;2023-10-31T11:15:28;5.00;;;1.13;;
26098;SDS011;13860;52.370;6.764;2023-10-31T11:18:37;2.92;;;1.00;;
26098;SDS011;13860;52.370;6.764;2023-10-31T11:21:53;2.92;;;1.25;;
26098;SDS011;13860;52.370;6.764;2023-10-31T11:25:01;5.13;;;2.08;;
26098;SDS011;13860;52.370;6.764;2023-10-31T11:28:11;4.07;;;0.95;;
26098;SDS011;13860;52.370;6.764;2023-10-31T11:31:22;5.10;;;1.20;;
26098;SDS011;13860;52.370;6.764;2023-10-31T11:34:28;5.40;;;0.85;;
26098;SDS011;13860;52.370;6.764;2023-10-31T11:37:36;5.15;;;0.95;;
26098;SDS011;13860;52.370;6.764;2023-10-31T11:40:57;6.53;;;1.20;;
26098;SDS011;13860;52.370;6.764;2023-10-31T11:44:07;2.10;;;0.65;;
26098;SDS011;13860;52.370;6.764;2023-10-31T11:47:17;7.43;;;1.15;;
26098;SDS011;13860;52.370;6.764;2023-10-31T11:50:25;4.63;;;0.80;;
26098;SDS011;13860;52.370;6.764;2023-10-31T11:53:30;6.00;;;1.10;;
26098;SDS011;13860;52.370;6.764;2023-10-31T11:56:38;5.20;;;0.80;;
26098;SDS011;13860;52.370;6.764;2023-10-31T11:59:43;6.60;;;1.00;;
26098;SDS011;13860;52.370;6.764;2023-10-31T12:03:00;6.05;;;1.08;;
26098;SDS011;13860;52.370;6.764;2023-10-31T12:06:07;8.52;;;1.30;;
26098;SDS011;13860;52.370;6.764;2023-10-31T12:09:15;7.75;;;0.85;;
26098;SDS011;13860;52.370;6.764;2023-10-31T12:12:24;8.05;;;0.88;;
26098;SDS011;13860;52.370;6.764;2023-10-31T12:15:37;5.53;;;1.20;;
26098;SDS011;13860;52.370;6.764;2023-10-31T12:18:58;3.17;;;0.70;;
26098;SDS011;13860;52.370;6.764;2023-10-31T12:22:12;4.82;;;0.82;;
26098;SDS011;13860;52.370;6.764;2023-10-31T12:25:18;3.63;;;1.05;;
26098;SDS011;13860;52.370;6.764;2023-10-31T12:28:25;9.15;;;1.05;;
26098;SDS011;13860;52.370;6.764;2023-10-31T12:31:31;5.07;;;1.25;;
26098;SDS011;13860;52.370;6.764;2023-10-31T12:34:43;4.95;;;0.88;;
26098;SDS011;13860;52.370;6.764;2023-10-31T12:37:49;4.63;;;0.98;;
26098;SDS011;13860;52.370;6.764;2023-10-31T12:40:57;3.65;;;0.80;;
26098;SDS011;13860;52.370;6.764;2023-10-31T12:44:03;3.15;;;0.90;;
26098;SDS011;13860;52.370;6.764;2023-10-31T12:47:20;3.95;;;0.68;;
26098;SDS011;13860;52.370;6.764;2023-10-31T12:50:29;11.65;;;1.50;;
26098;SDS011;13860;52.370;6.764;2023-10-31T12:53:36;4.63;;;1.35;;
26098;SDS011;13860;52.370;6.764;2023-10-31T12:56:42;5.90;;;0.77;;
26098;SDS011;13860;52.370;6.764;2023-10-31T12:59:50;6.68;;;1.00;;
26098;SDS011;13860;52.370;6.764;2023-10-31T13:03:01;2.65;;;0.60;;
26098;SDS011;13860;52.370;6.764;2023-10-31T13:06:16;1.42;;;0.60;;
26098;SDS011;13860;52.370;6.764;2023-10-31T13:09:22;3.80;;;0.80;;
26098;SDS011;13860;52.370;6.764;2023-10-31T13:12:29;6.60;;;1.13;;
26098;SDS011;13860;52.370;6.764;2023-10-31T13:15:35;3.17;;;0.70;;
26098;SDS011;13860;52.370;6.764;2023-10-31T13:18:43;4.85;;;0.90;;
26098;SDS011;13860;52.370;6.764;2023-10-31T13:21:50;1.65;;;0.80;;
26098;SDS011;13860;52.370;6.764;2023-10-31T13:24:58;2.15;;;0.77;;
26098;SDS011;13860;52.370;6.764;2023-10-31T13:28:03;3.38;;;0.85;;
26098;SDS011;13860;52.370;6.764;2023-10-31T13:31:13;1.27;;;0.57;;
26098;SDS011;13860;52.370;6.764;2023-10-31T13:34:19;3.90;;;0.70;;
26098;SDS011;13860;52.370;6.764;2023-10-31T13:37:30;3.03;;;0.63;;
26098;SDS011;13860;52.370;6.764;2023-10-31T13:40:36;3.88;;;1.55;;
26098;SDS011;13860;52.370;6.764;2023-10-31T13:43:44;3.53;;;0.93;;
26098;SDS011;13860;52.370;6.764;2023-10-31T13:46:50;2.97;;;1.00;;
26098;SDS011;13860;52.370;6.764;2023-10-31T13:49:57;4.88;;;1.17;;
26098;SDS011;13860;52.370;6.764;2023-10-31T13:53:05;6.75;;;1.88;;
26098;SDS011;13860;52.370;6.764;2023-10-31T13:56:16;4.05;;;1.02;;
26098;SDS011;13860;52.370;6.764;2023-10-31T13:59:21;8.48;;;2.08;;
26098;SDS011;13860;52.370;6.764;2023-10-31T14:02:29;2.95;;;0.82;;
26098;SDS011;13860;52.370;6.764;2023-10-31T14:05:37;6.82;;;1.15;;
26098;SDS011;13860;52.370;6.764;2023-10-31T14:08:48;8.07;;;1.10;;
26098;SDS011;13860;52.370;6.764;2023-10-31T14:11:54;4.97;;;0.90;;
26098;SDS011;13860;52.370;6.764;2023-10-31T14:15:01;3.38;;;1.02;;
26098;SDS011;13860;52.370;6.764;2023-10-31T14:18:07;3.53;;;1.13;;
26098;SDS011;13860;52.370;6.764;2023-10-31T14:21:15;3.50;;;0.80;;
26098;SDS011;13860;52.370;6.764;2023-10-31T14:24:23;4.00;;;0.93;;
26098;SDS011;13860;52.370;6.764;2023-10-31T14:27:31;2.83;;;0.68;;
26098;SDS011;13860;52.370;6.764;2023-10-31T14:30:36;1.90;;;0.98;;
26098;SDS011;13860;52.370;6.764;2023-10-31T14:33:43;2.92;;;1.15;;
26098;SDS011;13860;52.370;6.764;2023-10-31T14:36:49;1.27;;;0.80;;
26098;SDS011;13860;52.370;6.764;2023-10-31T14:40:00;1.92;;;0.70;;
26098;SDS011;13860;52.370;6.764;2023-10-31T14:43:05;1.83;;;0.68;;
26098;SDS011;13860;52.370;6.764;2023-10-31T14:46:13;1.23;;;0.60;;
26098;SDS011;13860;52.370;6.764;2023-10-31T14:49:18;3.17;;;1.00;;
26098;SDS011;13860;52.370;6.764;2023-10-31T14:52:26;5.00;;;0.95;;
26098;SDS011;13860;52.370;6.764;2023-10-31T14:55:33;2.58;;;0.70;;
26098;SDS011;13860;52.370;6.764;2023-10-31T14:58:41;2.25;;;0.90;;
26098;SDS011;13860;52.370;6.764;2023-10-31T15:01:46;4.95;;;1.00;;
26098;SDS011;13860;52.370;6.764;2023-10-31T15:04:54;4.97;;;0.70;;
26098;SDS011;13860;52.370;6.764;2023-10-31T15:07:59;2.95;;;0.95;;
26098;SDS011;13860;52.370;6.764;2023-10-31T15:11:09;1.85;;;1.08;;
26098;SDS011;13860;52.370;6.764;2023-10-31T15:14:14;2.83;;;1.45;;
26098;SDS011;13860;52.370;6.764;2023-10-31T15:17:22;3.30;;;1.05;;
26098;SDS011;13860;52.370;6.764;2023-10-31T15:20:27;2.97;;;0.88;;
26098;SDS011;13860;52.370;6.764;2023-10-31T15:23:35;5.00;;;1.40;;
26098;SDS011;13860;52.370;6.764;2023-10-31T15:26:43;3.45;;;1.00;;
26098;SDS011;13860;52.370;6.764;2023-10-31T15:29:50;3.08;;;0.88;;
26098;SDS011;13860;52.370;6.764;2023-10-31T15:32:55;2.13;;;0.98;;
26098;SDS011;13860;52.370;6.764;2023-10-31T15:36:04;2.67;;;0.70;;
26098;SDS011;13860;52.370;6.764;2023-10-31T15:39:15;2.17;;;0.93;;
26098;SDS011;13860;52.370;6.764;2023-10-31T15:42:26;5.18;;;1.48;;
26098;SDS011;13860;52.370;6.764;2023-10-31T15:45:31;1.92;;;0.75;;
26098;SDS011;13860;52.370;6.764;2023-10-31T15:48:44;4.82;;;0.98;;
26098;SDS011;13860;52.370;6.764;2023-10-31T15:51:49;2.92;;;1.25;;
26098;SDS011;13860;52.370;6.764;2023-10-31T15:54:57;1.50;;;0.73;;
26098;SDS011;13860;52.370;6.764;2023-10-31T15:58:05;2.05;;;0.80;;
26098;SDS011;13860;52.370;6.764;2023-10-31T16:01:13;7.32;;;1.13;;
26098;SDS011;13860;52.370;6.764;2023-10-31T16:04:18;2.08;;;1.00;;
26098;SDS011;13860;52.370;6.764;2023-10-31T16:07:27;4.82;;;1.30;;
26098;SDS011;13860;52.370;6.764;2023-10-31T16:10:33;2.97;;;1.15;;
26098;SDS011;13860;52.370;6.764;2023-10-31T16:13:43;4.35;;;1.20;;
26098;SDS011;13860;52.370;6.764;2023-10-31T16:16:48;3.05;;;1.23;;
26098;SDS011;13860;52.370;6.764;2023-10-31T16:19:56;4.40;;;1.42;;
26098;SDS011;13860;52.370;6.764;2023-10-31T16:23:02;2.55;;;1.25;;
26098;SDS011;13860;52.370;6.764;2023-10-31T16:26:09;4.32;;;1.42;;
26098;SDS011;13860;52.370;6.764;2023-10-31T16:29:17;3.97;;;1.40;;
26098;SDS011;13860;52.370;6.764;2023-10-31T16:32:25;4.80;;;1.55;;
26098;SDS011;13860;52.370;6.764;2023-10-31T16:35:30;7.32;;;1.70;;
26098;SDS011;13860;52.370;6.764;2023-10-31T16:38:38;3.88;;;1.92;;
26098;SDS011;13860;52.370;6.764;2023-10-31T16:41:43;2.97;;;1.58;;
26098;SDS011;13860;52.370;6.764;2023-10-31T16:44:53;4.53;;;2.03;;
26098;SDS011;13860;52.370;6.764;2023-10-31T16:47:59;4.18;;;2.20;;
26098;SDS011;13860;52.370;6.764;2023-10-31T16:51:13;10.07;;;3.90;;
26098;SDS011;13860;52.370;6.764;2023-10-31T16:54:19;7.13;;;3.50;;
26098;SDS011;13860;52.370;6.764;2023-10-31T16:57:27;9.70;;;2.92;;
26098;SDS011;13860;52.370;6.764;2023-10-31T17:00:35;6.15;;;2.95;;
26098;SDS011;13860;52.370;6.764;2023-10-31T17:03:43;6.35;;;3.08;;
26098;SDS011;13860;52.370;6.764;2023-10-31T17:06:48;7.07;;;3.08;;
26098;SDS011;13860;52.370;6.764;2023-10-31T17:09:56;7.45;;;3.53;;
26098;SDS011;13860;52.370;6.764;2023-10-31T17:13:02;6.85;;;3.75;;
26098;SDS011;13860;52.370;6.764;2023-10-31T17:16:13;7.35;;;4.15;;
26098;SDS011;13860;52.370;6.764;2023-10-31T17:19:18;9.60;;;3.65;;
26098;SDS011;13860;52.370;6.764;2023-10-31T17:22:26;6.72;;;4.63;;
26098;SDS011;13860;52.370;6.764;2023-10-31T17:25:35;8.30;;;3.83;;
26098;SDS011;13860;52.370;6.764;2023-10-31T17:28:42;6.38;;;4.18;;
26098;SDS011;13860;52.370;6.764;2023-10-31T17:31:52;10.65;;;5.88;;
26098;SDS011;13860;52.370;6.764;2023-10-31T17:35:11;7.50;;;4.68;;
26098;SDS011;13860;52.370;6.764;2023-10-31T17:38:19;8.35;;;4.38;;
26098;SDS011;13860;52.370;6.764;2023-10-31T17:41:27;9.85;;;4.35;;
26098;SDS011;13860;52.370;6.764;2023-10-31T17:44:33;9.48;;;4.85;;
26098;SDS011;13860;52.370;6.764;2023-10-31T17:47:43;10.73;;;4.90;;
26098;SDS011;13860;52.370;6.764;2023-10-31T17:50:49;7.57;;;4.35;;
26098;SDS011;13860;52.370;6.764;2023-10-31T17:53:56;16.42;;;7.38;;
26098;SDS011;13860;52.370;6.764;2023-10-31T17:57:02;9.32;;;5.72;;
26098;SDS011;13860;52.370;6.764;2023-10-31T18:00:10;10.65;;;6.10;;
26098;SDS011;13860;52.370;6.764;2023-10-31T18:03:23;13.20;;;6.32;;
26098;SDS011;13860;52.370;6.764;2023-10-31T18:06:31;11.68;;;6.00;;
26098;SDS011;13860;52.370;6.764;2023-10-31T18:09:36;16.20;;;6.88;;
26098;SDS011;13860;52.370;6.764;2023-10-31T18:12:44;14.07;;;6.70;;
26098;SDS011;13860;52.370;6.764;2023-10-31T18:15:50;13.50;;;6.93;;
26098;SDS011;13860;52.370;6.764;2023-10-31T18:19:01;12.23;;;6.63;;
26098;SDS011;13860;52.370;6.764;2023-10-31T18:22:06;12.48;;;7.55;;
26098;SDS011;13860;52.370;6.764;2023-10-31T18:25:14;15.95;;;6.82;;
26098;SDS011;13860;52.370;6.764;2023-10-31T18:28:19;18.02;;;8.00;;
26098;SDS011;13860;52.370;6.764;2023-10-31T18:31:27;17.15;;;7.75;;
26098;SDS011;13860;52.370;6.764;2023-10-31T18:34:37;14.43;;;7.80;;
26098;SDS011;13860;52.370;6.764;2023-10-31T18:37:44;17.60;;;8.57;;
26098;SDS011;13860;52.370;6.764;2023-10-31T18:40:51;14.80;;;7.30;;
26098;SDS011;13860;52.370;6.764;2023-10-31T18:43:58;14.07;;;8.00;;
26098;SDS011;13860;52.370;6.764;2023-10-31T18:47:24;13.27;;;7.85;;